Archival Weather

Heathrow

London, United Kingdom (EGLL)

Report from: Wednesday, December 6, 2023 3:20 AM GMT
Current time: Saturday, March 2, 2024 8:59 AM GMT

Current weather – Weather history – Daily summaries
Weather forecast

Temperature3.0°C (37.4°F)
Wind chill1.6°C (34.9°F)
Dew point2.0°C (35.6°F)
Winds 3 kts (1.5 m/s, 3.5 mph) Northwest (310°)
Visibility6.2 mi. (10 km)
Clouds Sky clear
Altimeter30.03 in.Hg (1017 mB)
Relative humidity93 %
Density altitude-1,480 ft. (-451 m)
Remarks Fully automated report
No clouds detected
Flight conditions Visual Meteorological Conditions
Raw dataEGLL 060320Z AUTO 31003KT 9999 NCD 03/02 Q1017
An error has occurred. This application may no longer respond until reloaded. Reload 🗙